Time;durP1;ratioP1;P1;durP2;ratioP2;P2;SDS_P1;SDS_P2;PMS_P1;PMS_P2;Temp;Humidity;BMP_temperature;BMP_pressure;BME280_temperature;BME280_humidity;BME280_pressure;Samples;Min_cycle;Max_cycle;Signal;HPM_P1;HPM_P2
2022/01/20 00:01:46;;;;;;;23.08;12.73;;;;;;;;;;6253205;28;20100;-71
2022/01/20 00:04:52;;;;;;;27.25;11.77;;;;;;;;;;6245359;28;20468;-71
2022/01/20 00:27:57;;;;;;;31.42;15.52;;;;;;;;;;6255697;28;20037;-71
2022/01/20 00:31:10;;;;;;;26.42;13.73;;;;;;;;;;6244363;28;20025;-71
2022/01/20 00:34:17;;;;;;;32.03;15.27;;;;;;;;;;6244319;28;20147;-71
2022/01/20 00:37:19;;;;;;;22.35;12.20;;;;;;;;;;6244051;28;20102;-71
2022/01/20 00:40:20;;;;;;;20.23;12.73;;;;;;;;;;6256784;28;20078;-71
2022/01/20 00:43:20;;;;;;;37.63;13.55;;;;;;;;;;6256234;28;20028;-71
2022/01/20 00:46:20;;;;;;;23.92;12.55;;;;;;;;;;6268611;28;20020;-71
2022/01/20 00:49:21;;;;;;;23.90;11.23;;;;;;;;;;6268425;28;20029;-71
2022/01/20 00:52:21;;;;;;;20.35;11.55;;;;;;;;;;6268653;28;20519;-71
2022/01/20 00:55:21;;;;;;;30.05;14.98;;;;;;;;;;6265258;28;20483;-71
2022/01/20 00:58:21;;;;;;;21.25;13.07;;;;;;;;;;6268868;28;20033;-71
2022/01/20 01:01:23;;;;;;;21.67;10.20;;;;;;;;;;6253383;28;20185;-71
2022/01/20 01:04:25;;;;;;;19.40;11.93;;;;;;;;;;6243775;28;20092;-72
2022/01/20 01:10:34;;;;;;;24.38;11.45;;;;;;;;;;6247733;28;20088;-71
2022/01/20 01:13:34;;;;;;;;;;;;;;;;;;6268867;28;20070;-71
2022/01/20 01:23:04;;;;;;;22.05;11.32;;;;;;;;;;6268348;28;20040;-71
2022/01/20 01:26:05;;;;;;;21.55;13.82;;;;;;;;;;6267093;28;20485;-71
2022/01/20 01:29:30;;;;;;;21.08;12.52;;;;;;;;;;6244162;28;20079;-71
2022/01/20 01:32:52;;;;;;;24.20;11.70;;;;;;;;;;6243185;28;20045;-71
2022/01/20 01:35:55;;;;;;;17.10;8.35;;;;;;;;;;6242201;28;20044;-71
2022/01/20 01:38:56;;;;;;;20.45;12.18;;;;;;;;;;6250848;28;20104;-71
2022/01/20 01:41:57;;;;;;;15.48;7.85;;;;;;;;;;6250067;28;20020;-71
2022/01/20 01:45:08;;;;;;;23.23;12.07;;;;;;;;;;6259713;28;20040;-72
2022/01/20 01:48:08;;;;;;;15.73;7.97;;;;;;;;;;6267464;28;20401;-71
2022/01/20 01:51:10;;;;;;;19.80;10.25;;;;;;;;;;6267259;28;20052;-72
2022/01/20 01:54:11;;;;;;;23.80;14.10;;;;;;;;;;6265265;28;20480;-71
2022/01/20 01:57:12;;;;;;;25.93;11.83;;;;;;;;;;6267781;28;20115;-71
2022/01/20 02:00:13;;;;;;;18.80;10.18;;;;;;;;;;6262516;28;20799;-71
2022/01/20 02:03:14;;;;;;;14.23;7.53;;;;;;;;;;6242919;28;20017;-72
2022/01/20 02:19:11;;;;;;;20.98;10.68;;;;;;;;;;6272395;28;20037;-72
2022/01/20 02:22:11;;;;;;;22.58;10.82;;;;;;;;;;6272038;28;20500;-72
2022/01/20 02:25:18;;;;;;;22.10;12.05;;;;;;;;;;6272241;28;20021;-72
2022/01/20 02:28:19;;;;;;;18.80;10.45;;;;;;;;;;6255466;28;20044;-72
2022/01/20 02:31:19;;;;;;;13.63;7.18;;;;;;;;;;6246829;28;20654;-72
2022/01/20 02:34:21;;;;;;;18.40;9.40;;;;;;;;;;6255671;28;20045;-72
2022/01/20 02:37:21;;;;;;;19.52;10.43;;;;;;;;;;6264316;28;20125;-72
2022/01/20 02:44:47;;;;;;;19.33;10.77;;;;;;;;;;6262555;28;20429;-72
2022/01/20 02:47:05;;;;;;;16.40;8.77;;;;;;;;;;6259938;28;20037;-72
2022/01/20 02:50:05;;;;;;;20.77;10.05;;;;;;;;;;6246439;28;20040;-72
2022/01/20 02:53:06;;;;;;;28.60;15.68;;;;;;;;;;6247214;28;20033;-72
2022/01/20 02:56:06;;;;;;;13.23;6.32;;;;;;;;;;6253504;28;20029;-73
2022/01/20 02:59:06;;;;;;;24.52;12.43;;;;;;;;;;6263716;28;20083;-73
2022/01/20 03:02:08;;;;;;;22.13;11.85;;;;;;;;;;6248991;28;20045;-72
2022/01/20 03:05:10;;;;;;;22.23;11.30;;;;;;;;;;6246580;28;20055;-72
2022/01/20 03:08:11;;;;;;;20.38;9.95;;;;;;;;;;6246240;28;20017;-72
2022/01/20 03:11:11;;;;;;;19.85;10.07;;;;;;;;;;6255846;28;20040;-72
2022/01/20 03:14:11;;;;;;;22.95;12.20;;;;;;;;;;6271080;28;20480;-72
2022/01/20 03:17:13;;;;;;;21.95;11.60;;;;;;;;;;6270775;28;20025;-72
2022/01/20 03:20:13;;;;;;;24.38;14.00;;;;;;;;;;6270508;28;20020;-72
2022/01/20 03:23:14;;;;;;;18.25;8.48;;;;;;;;;;6270226;28;20031;-72
2022/01/20 03:26:14;;;;;;;20.55;8.80;;;;;;;;;;6270981;28;20187;-72
2022/01/20 03:29:14;;;;;;;23.33;14.18;;;;;;;;;;6245525;28;20025;-72
2022/01/20 03:32:15;;;;;;;27.33;9.98;;;;;;;;;;6245990;28;20025;-72
2022/01/20 03:35:15;;;;;;;16.40;9.07;;;;;;;;;;6245431;28;20053;-72
2022/01/20 03:38:16;;;;;;;20.75;13.43;;;;;;;;;;6245802;28;20104;-72
2022/01/20 03:41:16;;;;;;;30.65;14.85;;;;;;;;;;6266260;28;20389;-72
2022/01/20 03:44:16;;;;;;;25.15;11.93;;;;;;;;;;6257647;28;20013;-72
2022/01/20 03:47:18;;;;;;;14.80;7.03;;;;;;;;;;6270143;28;20389;-72
2022/01/20 03:53:38;;;;;;;18.90;9.77;;;;;;;;;;6269881;28;20033;-73
2022/01/20 03:56:38;;;;;;;18.95;11.27;;;;;;;;;;6268466;28;20021;-73
2022/01/20 03:59:39;;;;;;;19.70;9.88;;;;;;;;;;6266458;28;20034;-73
2022/01/20 04:02:39;;;;;;;26.20;14.13;;;;;;;;;;6248106;28;20025;-73
2022/01/20 04:05:50;;;;;;;16.42;9.93;;;;;;;;;;6245004;28;20093;-73
2022/01/20 04:08:50;;;;;;;27.00;14.03;;;;;;;;;;6245180;28;20025;-73
2022/01/20 04:11:51;;;;;;;28.95;12.77;;;;;;;;;;6257978;28;20786;-73
2022/01/20 04:14:51;;;;;;;24.15;12.63;;;;;;;;;;6269835;28;20033;-73
2022/01/20 04:17:55;;;;;;;26.05;14.23;;;;;;;;;;6269358;28;20306;-73
2022/01/20 04:20:56;;;;;;;19.05;11.73;;;;;;;;;;6269465;28;20040;-73
2022/01/20 04:23:57;;;;;;;28.42;14.65;;;;;;;;;;6268259;28;20021;-74
2022/01/20 04:26:58;;;;;;;27.65;14.55;;;;;;;;;;6263459;28;20493;-74
2022/01/20 04:29:58;;;;;;;27.52;10.35;;;;;;;;;;6244202;28;20017;-74
2022/01/20 04:32:59;;;;;;;24.48;15.32;;;;;;;;;;6244695;28;20013;-75
2022/01/20 04:35:59;;;;;;;27.15;13.32;;;;;;;;;;6241782;28;20052;-75
2022/01/20 04:39:01;;;;;;;33.92;15.95;;;;;;;;;;6246739;28;20017;-75
2022/01/20 04:42:01;;;;;;;29.33;17.00;;;;;;;;;;6264340;28;20013;-76
2022/01/20 04:45:07;;;;;;;35.75;20.88;;;;;;;;;;6261356;28;20016;-76
2022/01/20 04:48:28;;;;;;;29.80;14.27;;;;;;;;;;6267359;28;20464;-76
2022/01/20 04:58:07;;;;;;;34.35;16.42;;;;;;;;;;6268421;28;20025;-77
2022/01/20 05:01:07;;;;;;;28.58;16.63;;;;;;;;;;6255714;28;20067;-76
2022/01/20 05:04:08;;;;;;;29.38;14.75;;;;;;;;;;6243758;28;20026;-76
2022/01/20 05:07:10;;;;;;;25.90;13.45;;;;;;;;;;6243668;28;20397;-76
2022/01/20 05:10:12;;;;;;;;;;;;;;;;;;6244824;28;20151;-77
2022/01/20 05:13:22;;;;;;;;;;;;;;;;;;6262088;28;19919;-77
2022/01/20 05:16:24;;;;;;;28.50;16.52;;;;;;;;;;6251989;28;19912;-77
2022/01/20 05:19:26;;;;;;;31.85;13.30;;;;;;;;;;6256363;28;20018;-77
2022/01/20 05:22:26;;;;;;;28.38;14.82;;;;;;;;;;6243981;28;20457;-77
2022/01/20 05:25:26;;;;;;;27.65;15.95;;;;;;;;;;6261604;28;20346;-77
2022/01/20 05:28:26;;;;;;;25.08;14.95;;;;;;;;;;6249892;28;20427;-77
2022/01/20 05:31:27;;;;;;;21.80;11.43;;;;;;;;;;6243386;28;20025;-77
2022/01/20 05:34:27;;;;;;;27.55;15.63;;;;;;;;;;6244564;28;20120;-77
2022/01/20 05:37:27;;;;;;;26.67;14.02;;;;;;;;;;6260880;28;20017;-78
2022/01/20 05:40:28;;;;;;;28.15;15.55;;;;;;;;;;6256926;28;20166;-78
2022/01/20 05:43:28;;;;;;;23.73;12.40;;;;;;;;;;6256043;28;20039;-78
2022/01/20 05:46:35;;;;;;;34.63;17.90;;;;;;;;;;6246641;28;20022;-78
2022/01/20 05:49:36;;;;;;;36.42;16.58;;;;;;;;;;6242804;28;20053;-78
2022/01/20 05:52:41;;;;;;;28.20;14.00;;;;;;;;;;6243109;28;20025;-78
2022/01/20 05:55:41;;;;;;;24.83;14.68;;;;;;;;;;6246028;28;20444;-78
2022/01/20 05:58:41;;;;;;;27.23;14.55;;;;;;;;;;6268431;28;20350;-79
2022/01/20 06:01:45;;;;;;;30.77;14.80;;;;;;;;;;6248754;28;20090;-79
2022/01/20 06:04:45;;;;;;;26.67;15.57;;;;;;;;;;6243135;28;20068;-79
2022/01/20 06:07:46;;;;;;;28.80;14.48;;;;;;;;;;6241410;28;20029;-79
2022/01/20 06:10:46;;;;;;;26.02;11.27;;;;;;;;;;6248706;28;20019;-79
2022/01/20 06:13:46;;;;;;;25.95;13.63;;;;;;;;;;6262335;28;20021;-79
2022/01/20 06:16:46;;;;;;;21.17;10.85;;;;;;;;;;6265013;28;20370;-79
2022/01/20 06:19:47;;;;;;;37.80;16.23;;;;;;;;;;6256490;28;20104;-79
2022/01/20 06:22:47;;;;;;;35.75;17.00;;;;;;;;;;6241995;28;20017;-79
2022/01/20 06:25:47;;;;;;;35.20;13.52;;;;;;;;;;6244968;28;20021;-79
2022/01/20 06:28:48;;;;;;;24.58;11.82;;;;;;;;;;6261337;28;20025;-79
2022/01/20 06:31:48;;;;;;;21.13;9.48;;;;;;;;;;6267438;28;20366;-80
2022/01/20 06:34:48;;;;;;;26.05;13.02;;;;;;;;;;6251893;28;20095;-79
2022/01/20 06:37:48;;;;;;;31.55;15.68;;;;;;;;;;6261661;28;20108;-80
2022/01/20 06:40:49;;;;;;;21.05;11.38;;;;;;;;;;6282629;28;20045;-80
2022/01/20 06:43:49;;;;;;;31.55;15.20;;;;;;;;;;6263912;28;20044;-80
2022/01/20 06:46:50;;;;;;;19.15;10.52;;;;;;;;;;6258481;28;20096;-80
2022/01/20 06:49:50;;;;;;;32.40;12.95;;;;;;;;;;6252172;28;20021;-80
2022/01/20 06:52:50;;;;;;;21.20;9.35;;;;;;;;;;6262964;28;20087;-79
2022/01/20 06:55:50;;;;;;;15.05;8.98;;;;;;;;;;6249619;28;20108;-79
2022/01/20 06:58:51;;;;;;;21.58;11.52;;;;;;;;;;6255410;28;20017;-78
2022/01/20 07:01:51;;;;;;;34.65;20.58;;;;;;;;;;6255017;28;20017;-78
2022/01/20 07:04:52;;;;;;;25.85;14.80;;;;;;;;;;6252502;28;20335;-77
2022/01/20 07:07:52;;;;;;;19.52;9.02;;;;;;;;;;6257101;28;20092;-76
2022/01/20 07:10:52;;;;;;;12.25;6.10;;;;;;;;;;6258848;28;20025;-76
2022/01/20 07:13:53;;;;;;;11.63;5.35;;;;;;;;;;6255751;28;20389;-76
2022/01/20 07:16:53;;;;;;;8.48;3.60;;;;;;;;;;6267860;28;20020;-76
2022/01/20 07:19:53;;;;;;;17.05;6.63;;;;;;;;;;6260914;28;20024;-76
2022/01/20 07:22:53;;;;;;;18.42;9.13;;;;;;;;;;6256259;28;20009;-75
2022/01/20 07:25:54;;;;;;;9.18;5.75;;;;;;;;;;6254138;28;20425;-75
2022/01/20 07:28:54;;;;;;;16.23;5.40;;;;;;;;;;6249503;28;20477;-74
2022/01/20 07:31:54;;;;;;;10.75;3.67;;;;;;;;;;6260574;28;20017;-74
2022/01/20 07:34:55;;;;;;;9.90;3.70;;;;;;;;;;6257974;28;20098;-73
2022/01/20 07:37:55;;;;;;;6.95;4.22;;;;;;;;;;6259603;28;20147;-73
2022/01/20 07:40:55;;;;;;;15.15;5.50;;;;;;;;;;6252371;28;20048;-73
2022/01/20 07:43:55;;;;;;;9.75;5.20;;;;;;;;;;6251609;28;20013;-73
2022/01/20 07:46:57;;;;;;;10.02;5.95;;;;;;;;;;6254467;28;20025;-73
2022/01/20 07:49:57;;;;;;;11.27;7.60;;;;;;;;;;6254296;28;20022;-72
2022/01/20 07:52:58;;;;;;;17.13;8.75;;;;;;;;;;6248427;28;20032;-72
2022/01/20 07:55:58;;;;;;;14.20;8.13;;;;;;;;;;6249695;28;20047;-72
2022/01/20 07:58:59;;;;;;;15.90;10.00;;;;;;;;;;6249941;28;20044;-72
2022/01/20 08:01:59;;;;;;;26.35;13.32;;;;;;;;;;6253378;28;20018;-71
2022/01/20 08:04:59;;;;;;;23.42;12.45;;;;;;;;;;6260332;28;20028;-71
2022/01/20 08:08:00;;;;;;;25.50;13.77;;;;;;;;;;6253202;28;20017;-71
2022/01/20 08:11:00;;;;;;;29.67;16.02;;;;;;;;;;6257122;28;20013;-71
2022/01/20 08:14:00;;;;;;;30.15;15.75;;;;;;;;;;6265774;28;20044;-71
2022/01/20 08:17:00;;;;;;;27.75;14.57;;;;;;;;;;6262347;28;20025;-71
2022/01/20 08:20:01;;;;;;;19.88;11.52;;;;;;;;;;6261934;28;20037;-71
2022/01/20 08:23:01;;;;;;;19.02;11.57;;;;;;;;;;6245097;28;20376;-71
2022/01/20 08:26:02;;;;;;;17.13;10.20;;;;;;;;;;6247932;28;20032;-71
2022/01/20 08:29:02;;;;;;;29.90;11.90;;;;;;;;;;6248294;28;20091;-71
2022/01/20 08:32:03;;;;;;;26.35;11.73;;;;;;;;;;6249826;28;20071;-71
2022/01/20 08:35:06;;;;;;;19.67;11.68;;;;;;;;;;6253709;28;20095;-71
2022/01/20 08:38:07;;;;;;;13.90;8.43;;;;;;;;;;6260039;28;20078;-71
2022/01/20 08:41:07;;;;;;;21.05;10.00;;;;;;;;;;6257062;28;20021;-72
2022/01/20 08:44:09;;;;;;;19.83;9.43;;;;;;;;;;6258510;28;20021;-72
2022/01/20 08:47:15;;;;;;;21.33;11.48;;;;;;;;;;6249859;28;20059;-72
2022/01/20 08:50:16;;;;;;;20.40;8.90;;;;;;;;;;6247299;28;20543;-73
2022/01/20 08:53:16;;;;;;;23.10;10.95;;;;;;;;;;6264837;28;20021;-73
2022/01/20 08:56:17;;;;;;;41.50;20.00;;;;;;;;;;6248087;28;20044;-73
2022/01/20 08:59:17;;;;;;;42.38;22.33;;;;;;;;;;6244228;28;20049;-73
2022/01/20 09:02:18;;;;;;;31.67;19.08;;;;;;;;;;6246138;28;20078;-73
2022/01/20 09:05:18;;;;;;;29.80;16.83;;;;;;;;;;6257932;28;20025;-72
2022/01/20 09:08:18;;;;;;;28.70;14.90;;;;;;;;;;6255226;28;20039;-72
2022/01/20 09:11:21;;;;;;;24.48;13.43;;;;;;;;;;6254833;28;20052;-72
2022/01/20 09:17:40;;;;;;;26.65;14.82;;;;;;;;;;6258013;28;20680;-72
2022/01/20 09:20:41;;;;;;;35.88;21.13;;;;;;;;;;6263463;28;20027;-72
2022/01/20 09:23:41;;;;;;;29.70;14.20;;;;;;;;;;6254962;28;20507;-73
2022/01/20 09:26:42;;;;;;;31.65;17.77;;;;;;;;;;6255593;28;20036;-73
2022/01/20 09:29:42;;;;;;;28.50;16.10;;;;;;;;;;6249680;28;20021;-73
2022/01/20 09:32:42;;;;;;;30.17;15.73;;;;;;;;;;6251429;28;20027;-75
2022/01/20 09:35:44;;;;;;;18.83;10.02;;;;;;;;;;6252145;28;20053;-74
2022/01/20 09:38:44;;;;;;;26.67;14.00;;;;;;;;;;6256530;28;20036;-74
2022/01/20 09:41:44;;;;;;;23.23;11.85;;;;;;;;;;6253485;28;21483;-74
2022/01/20 09:44:47;;;;;;;14.27;7.88;;;;;;;;;;6261225;28;20500;-74
2022/01/20 09:47:47;;;;;;;19.48;9.98;;;;;;;;;;6245124;28;20120;-74
2022/01/20 09:50:48;;;;;;;13.65;6.72;;;;;;;;;;6246767;28;20472;-74
2022/01/20 09:53:48;;;;;;;17.08;8.82;;;;;;;;;;6252541;28;20065;-74
2022/01/20 09:56:48;;;;;;;16.52;7.97;;;;;;;;;;6248435;28;20036;-73
2022/01/20 09:59:50;;;;;;;20.40;9.10;;;;;;;;;;6254726;28;20036;-73
2022/01/20 10:02:51;;;;;;;10.55;5.13;;;;;;;;;;6255892;28;20432;-73
2022/01/20 10:05:52;;;;;;;18.02;9.80;;;;;;;;;;6246958;28;20029;-73
2022/01/20 10:09:00;;;;;;;23.33;7.63;;;;;;;;;;6254269;28;20111;-73
2022/01/20 10:12:00;;;;;;;16.50;9.02;;;;;;;;;;6246573;28;20037;-73
2022/01/20 10:15:01;;;;;;;19.48;7.60;;;;;;;;;;6252174;28;20017;-73
2022/01/20 10:18:09;;;;;;;22.88;10.13;;;;;;;;;;6244082;28;20842;-73
2022/01/20 10:21:09;;;;;;;44.30;22.42;;;;;;;;;;6254182;28;20047;-73
2022/01/20 10:24:11;;;;;;;24.08;8.02;;;;;;;;;;6257150;28;20018;-72
2022/01/20 10:56:09;;;;;;;13.55;5.20;;;;;;;;;;6317134;27;20155;-72
2022/01/20 10:59:09;;;;;;;6.55;3.45;;;;;;;;;;6319459;28;20032;-72
2022/01/20 11:02:10;;;;;;;6.20;3.45;;;;;;;;;;6312365;28;20419;-72
2022/01/20 11:05:14;;;;;;;9.88;4.55;;;;;;;;;;6314197;28;20020;-72
2022/01/20 11:08:15;;;;;;;7.53;3.70;;;;;;;;;;6312440;28;20022;-72
2022/01/20 11:11:15;;;;;;;6.38;3.13;;;;;;;;;;6310615;28;20020;-72
2022/01/20 11:14:16;;;;;;;17.30;7.85;;;;;;;;;;6311738;28;20073;-72
2022/01/20 11:17:23;;;;;;;12.73;5.65;;;;;;;;;;6294022;28;20013;-72
2022/01/20 11:20:30;;;;;;;18.02;7.43;;;;;;;;;;6312588;28;20020;-72
2022/01/20 11:23:40;;;;;;;23.13;10.70;;;;;;;;;;6312335;28;20030;-72
2022/01/20 11:26:49;;;;;;;19.02;7.68;;;;;;;;;;6310339;28;20036;-72
2022/01/20 11:29:50;;;;;;;32.95;11.65;;;;;;;;;;6287068;28;20031;-72
2022/01/20 11:32:58;;;;;;;16.27;7.05;;;;;;;;;;6312985;28;20031;-72
2022/01/20 11:35:59;;;;;;;38.50;14.48;;;;;;;;;;6320596;28;20031;-72
2022/01/20 11:39:00;;;;;;;34.97;11.80;;;;;;;;;;6310899;28;20012;-72
2022/01/20 11:42:01;;;;;;;20.98;9.65;;;;;;;;;;6309161;28;20388;-72
2022/01/20 11:45:20;;;;;;;20.48;8.60;;;;;;;;;;6296403;28;20016;-72
2022/01/20 11:48:22;;;;;;;15.50;5.28;;;;;;;;;;6312871;28;20048;-72
2022/01/20 11:51:24;;;;;;;28.63;12.55;;;;;;;;;;6310863;28;20016;-72
2022/01/20 11:54:32;;;;;;;20.23;9.65;;;;;;;;;;6305670;28;20040;-72
2022/01/20 11:57:33;;;;;;;14.45;6.00;;;;;;;;;;6305131;28;20012;-72
2022/01/20 12:00:33;;;;;;;18.20;6.68;;;;;;;;;;6311396;28;20020;-72
2022/01/20 12:03:34;;;;;;;14.10;5.80;;;;;;;;;;6310357;28;20649;-72
2022/01/20 12:06:46;;;;;;;10.40;5.82;;;;;;;;;;6300757;28;20024;-72
2022/01/20 12:09:49;;;;;;;15.70;7.50;;;;;;;;;;6294165;28;20560;-72
2022/01/20 12:12:50;;;;;;;9.10;4.88;;;;;;;;;;6293140;28;20147;-72
2022/01/20 12:15:58;;;;;;;11.23;6.57;;;;;;;;;;6294174;28;20426;-72
2022/01/20 12:18:59;;;;;;;10.15;5.63;;;;;;;;;;6296564;28;20012;-72
2022/01/20 12:22:01;;;;;;;17.40;6.63;;;;;;;;;;6294335;28;20027;-72
2022/01/20 12:25:01;;;;;;;27.08;11.07;;;;;;;;;;6295839;28;20032;-72
2022/01/20 12:28:12;;;;;;;13.18;7.32;;;;;;;;;;6295546;28;20526;-72
2022/01/20 12:31:13;;;;;;;10.27;5.55;;;;;;;;;;6295513;28;20025;-72
2022/01/20 12:34:13;;;;;;;7.60;4.00;;;;;;;;;;6295941;28;20092;-72
2022/01/20 12:37:13;;;;;;;9.98;4.88;;;;;;;;;;6294124;28;20020;-72
2022/01/20 12:40:19;;;;;;;12.32;5.82;;;;;;;;;;6294422;28;20066;-72
2022/01/20 12:43:19;;;;;;;11.30;4.25;;;;;;;;;;6294126;28;20019;-72
2022/01/20 12:46:28;;;;;;;8.52;4.50;;;;;;;;;;6294545;28;20020;-72
2022/01/20 12:49:28;;;;;;;20.80;9.02;;;;;;;;;;6295499;28;20024;-72
2022/01/20 12:52:28;;;;;;;16.83;6.38;;;;;;;;;;6291325;28;20499;-72
2022/01/20 12:55:29;;;;;;;10.30;4.45;;;;;;;;;;6274185;28;20033;-73
2022/01/20 12:58:29;;;;;;;10.70;4.68;;;;;;;;;;6271040;28;20580;-73
2022/01/20 13:01:45;;;;;;;20.60;5.97;;;;;;;;;;6267921;28;20025;-73
2022/01/20 13:04:46;;;;;;;45.03;19.95;;;;;;;;;;6227683;28;20032;-73
2022/01/20 13:07:52;;;;;;;33.63;13.80;;;;;;;;;;6282687;28;20024;-73
2022/01/20 13:11:00;;;;;;;23.33;10.80;;;;;;;;;;6244415;28;20033;-73
2022/01/20 13:14:01;;;;;;;21.20;10.00;;;;;;;;;;6288633;28;20016;-73
2022/01/20 13:17:01;;;;;;;14.73;6.57;;;;;;;;;;6263576;28;20013;-73
2022/01/20 13:20:11;;;;;;;13.10;8.65;;;;;;;;;;6267937;28;20079;-73
2022/01/20 13:26:15;;;;;;;8.15;3.13;;;;;;;;;;6269310;28;20021;-74
2022/01/20 13:29:15;;;;;;;11.48;3.67;;;;;;;;;;6251397;28;20025;-74
2022/01/20 13:32:16;;;;;;;15.63;5.15;;;;;;;;;;6251245;28;20268;-74
2022/01/20 13:35:17;;;;;;;13.50;4.63;;;;;;;;;;6268499;28;20029;-74
2022/01/20 13:38:17;;;;;;;13.48;6.18;;;;;;;;;;6268114;28;20017;-74
2022/01/20 13:41:19;;;;;;;21.70;8.95;;;;;;;;;;6272365;28;20408;-74
2022/01/20 13:47:45;;;;;;;26.42;12.65;;;;;;;;;;6272139;28;19983;-74
2022/01/20 13:50:53;;;;;;;23.90;9.32;;;;;;;;;;6283344;28;20017;-74
2022/01/20 13:53:54;;;;;;;21.05;8.18;;;;;;;;;;6268095;28;20524;-74
2022/01/20 13:56:54;;;;;;;39.28;16.27;;;;;;;;;;6268259;28;20131;-74
2022/01/20 13:59:55;;;;;;;15.10;6.88;;;;;;;;;;6269283;28;20100;-74
2022/01/20 14:02:56;;;;;;;20.57;9.13;;;;;;;;;;6268355;28;20488;-74
2022/01/20 14:05:56;;;;;;;18.17;6.90;;;;;;;;;;6267681;28;20033;-74
2022/01/20 14:08:57;;;;;;;15.00;6.40;;;;;;;;;;6246455;28;20039;-73
2022/01/20 14:11:57;;;;;;;8.88;3.88;;;;;;;;;;6268236;28;20032;-73
2022/01/20 14:14:58;;;;;;;10.82;4.38;;;;;;;;;;6249190;28;20485;-73
2022/01/20 14:18:00;;;;;;;11.52;4.72;;;;;;;;;;6249111;28;20012;-73
2022/01/20 14:21:00;;;;;;;19.10;8.38;;;;;;;;;;6267199;28;20021;-73
2022/01/20 14:24:00;;;;;;;18.60;9.52;;;;;;;;;;6266210;28;20718;-73
2022/01/20 14:27:09;;;;;;;22.85;7.97;;;;;;;;;;6246129;28;20029;-72
2022/01/20 14:30:11;;;;;;;11.45;5.63;;;;;;;;;;6264695;28;20033;-72
2022/01/20 14:33:12;;;;;;;12.02;4.75;;;;;;;;;;6266165;28;20025;-72
2022/01/20 14:36:13;;;;;;;8.85;3.67;;;;;;;;;;6265183;28;20095;-72
2022/01/20 14:39:13;;;;;;;11.60;4.68;;;;;;;;;;6266195;28;20116;-72
2022/01/20 14:42:14;;;;;;;11.00;4.43;;;;;;;;;;6265613;28;20503;-72
2022/01/20 14:45:16;;;;;;;28.05;8.02;;;;;;;;;;6258752;28;20029;-72
2022/01/20 14:48:17;;;;;;;18.08;8.85;;;;;;;;;;6264297;28;20292;-72
2022/01/20 14:51:17;;;;;;;34.30;17.30;;;;;;;;;;6259101;28;20112;-72
2022/01/20 14:54:18;;;;;;;20.27;10.35;;;;;;;;;;6262307;28;20041;-72
2022/01/20 14:57:20;;;;;;;17.70;7.22;;;;;;;;;;6262374;28;20552;-72
2022/01/20 15:00:20;;;;;;;35.15;14.32;;;;;;;;;;6263736;28;20456;-72
2022/01/20 15:03:20;;;;;;;28.08;10.55;;;;;;;;;;6248446;28;20021;-73
2022/01/20 15:06:21;;;;;;;16.65;6.47;;;;;;;;;;6266039;28;20424;-73
2022/01/20 15:09:21;;;;;;;19.80;8.52;;;;;;;;;;6266955;28;20056;-73
2022/01/20 15:12:22;;;;;;;29.23;11.82;;;;;;;;;;6264555;28;20385;-73
2022/01/20 15:15:22;;;;;;;20.58;8.88;;;;;;;;;;6263961;28;20177;-73
2022/01/20 15:18:22;;;;;;;16.80;8.60;;;;;;;;;;6255055;28;20033;-73
2022/01/20 15:21:24;;;;;;;17.73;7.85;;;;;;;;;;6291137;28;20038;-73
2022/01/20 15:24:25;;;;;;;13.70;6.38;;;;;;;;;;6266663;28;20025;-73
2022/01/20 15:27:27;;;;;;;12.90;5.85;;;;;;;;;;6251547;28;20029;-73
2022/01/20 15:30:27;;;;;;;20.17;7.63;;;;;;;;;;6242785;28;20556;-73
2022/01/20 15:33:28;;;;;;;14.27;6.50;;;;;;;;;;6264879;28;20064;-73
2022/01/20 15:36:28;;;;;;;22.77;8.23;;;;;;;;;;6263047;28;20029;-73
2022/01/20 15:39:28;;;;;;;35.40;14.70;;;;;;;;;;6245884;28;20104;-73
2022/01/20 15:42:28;;;;;;;21.83;10.40;;;;;;;;;;6269107;28;20359;-73
2022/01/20 15:45:29;;;;;;;18.40;5.68;;;;;;;;;;6251835;28;20032;-73
2022/01/20 15:48:29;;;;;;;24.85;9.05;;;;;;;;;;6270804;28;20024;-74
2022/01/20 15:51:29;;;;;;;19.23;9.30;;;;;;;;;;6269220;28;20369;-74
2022/01/20 15:54:29;;;;;;;31.52;11.60;;;;;;;;;;6280083;28;20388;-74
2022/01/20 15:57:30;;;;;;;25.00;10.05;;;;;;;;;;6294822;28;20021;-74
2022/01/20 16:00:30;;;;;;;27.17;11.82;;;;;;;;;;6293551;28;20108;-74
2022/01/20 16:03:30;;;;;;;20.38;8.75;;;;;;;;;;6297559;28;20089;-74
2022/01/20 16:06:31;;;;;;;24.00;9.73;;;;;;;;;;6306046;28;20443;-74
2022/01/20 16:09:31;;;;;;;15.00;5.72;;;;;;;;;;6292550;28;20024;-75
2022/01/20 16:12:31;;;;;;;25.88;9.93;;;;;;;;;;6287386;28;20108;-75
2022/01/20 16:15:32;;;;;;;17.30;7.10;;;;;;;;;;6297982;28;20473;-75
2022/01/20 16:18:33;;;;;;;24.17;9.82;;;;;;;;;;6296287;28;20111;-75
2022/01/20 16:21:34;;;;;;;22.33;7.72;;;;;;;;;;6294296;28;20063;-76
2022/01/20 16:24:35;;;;;;;38.47;11.73;;;;;;;;;;6295913;28;20102;-76
2022/01/20 16:27:35;;;;;;;21.30;9.50;;;;;;;;;;6295154;28;20025;-76
2022/01/20 16:30:36;;;;;;;22.08;9.95;;;;;;;;;;6294028;28;20040;-76
2022/01/20 16:33:36;;;;;;;14.60;7.53;;;;;;;;;;6294746;28;20038;-76
2022/01/20 16:36:36;;;;;;;28.10;10.50;;;;;;;;;;6295803;28;20071;-76
2022/01/20 16:39:37;;;;;;;21.05;8.35;;;;;;;;;;6294586;28;20071;-76
2022/01/20 16:42:38;;;;;;;24.95;8.73;;;;;;;;;;6294579;28;20025;-75
2022/01/20 16:45:38;;;;;;;26.98;8.93;;;;;;;;;;6294728;28;20503;-75
2022/01/20 16:48:41;;;;;;;16.38;8.57;;;;;;;;;;6292006;28;20459;-75
2022/01/20 16:51:41;;;;;;;15.68;5.93;;;;;;;;;;6291566;28;20031;-75
2022/01/20 16:54:41;;;;;;;22.70;7.72;;;;;;;;;;6280596;28;20037;-74
2022/01/20 16:57:42;;;;;;;24.20;11.52;;;;;;;;;;6270010;28;20071;-74
2022/01/20 17:00:42;;;;;;;28.23;11.27;;;;;;;;;;6268619;28;20017;-74
2022/01/20 17:03:42;;;;;;;27.60;8.95;;;;;;;;;;6267930;28;20049;-74
2022/01/20 17:06:43;;;;;;;27.30;9.35;;;;;;;;;;6268598;28;20349;-74
2022/01/20 17:09:43;;;;;;;20.33;8.30;;;;;;;;;;6269286;28;20025;-73
2022/01/20 17:12:43;;;;;;;33.28;10.68;;;;;;;;;;6268586;28;20029;-73
2022/01/20 17:15:44;;;;;;;24.48;10.32;;;;;;;;;;6268464;28;20017;-73
2022/01/20 17:18:44;;;;;;;30.30;10.80;;;;;;;;;;6250873;28;20035;-73
2022/01/20 17:21:45;;;;;;;40.08;12.48;;;;;;;;;;6268421;28;20376;-73
2022/01/20 17:24:45;;;;;;;24.52;10.23;;;;;;;;;;6268333;28;20017;-73
2022/01/20 17:27:45;;;;;;;31.45;10.63;;;;;;;;;;6269333;28;20120;-72
2022/01/20 17:30:46;;;;;;;36.78;11.27;;;;;;;;;;6257725;28;20029;-72
2022/01/20 17:33:46;;;;;;;20.77;8.85;;;;;;;;;;6276692;28;20381;-72
2022/01/20 17:36:46;;;;;;;26.30;13.45;;;;;;;;;;6269467;28;20009;-72
2022/01/20 17:39:47;;;;;;;33.35;9.70;;;;;;;;;;6269233;28;20017;-72
2022/01/20 17:42:47;;;;;;;23.33;8.40;;;;;;;;;;6267925;28;20017;-72
2022/01/20 17:45:48;;;;;;;16.50;6.43;;;;;;;;;;6267698;28;20021;-72
2022/01/20 17:48:48;;;;;;;15.57;7.93;;;;;;;;;;6269754;28;20020;-71
2022/01/20 17:51:49;;;;;;;35.92;10.00;;;;;;;;;;6249356;28;20067;-71
2022/01/20 17:54:49;;;;;;;27.08;10.80;;;;;;;;;;6269160;28;20136;-71
2022/01/20 17:57:50;;;;;;;12.80;6.20;;;;;;;;;;6265922;28;20032;-71
2022/01/20 18:00:50;;;;;;;24.65;9.25;;;;;;;;;;6267491;28;20052;-71
2022/01/20 18:03:50;;;;;;;29.45;9.70;;;;;;;;;;6266709;28;20506;-71
2022/01/20 18:06:51;;;;;;;22.45;8.18;;;;;;;;;;6269084;28;20013;-71
2022/01/20 18:09:51;;;;;;;28.65;13.38;;;;;;;;;;6268943;28;20473;-70
2022/01/20 18:12:51;;;;;;;21.63;8.88;;;;;;;;;;6268003;28;20025;-70
2022/01/20 18:15:52;;;;;;;17.25;7.85;;;;;;;;;;6267492;28;20009;-70
2022/01/20 18:18:52;;;;;;;24.73;9.45;;;;;;;;;;6266047;28;20021;-70
2022/01/20 18:21:52;;;;;;;25.10;8.85;;;;;;;;;;6266864;28;20021;-70
2022/01/20 18:24:54;;;;;;;25.88;11.18;;;;;;;;;;6267359;28;20023;-70
2022/01/20 18:27:54;;;;;;;27.60;6.97;;;;;;;;;;6232933;28;20241;-70
2022/01/20 18:30:54;;;;;;;22.35;8.55;;;;;;;;;;6267761;28;20020;-70
2022/01/20 18:33:55;;;;;;;13.50;5.70;;;;;;;;;;6266097;28;20335;-70
2022/01/20 18:36:55;;;;;;;8.77;5.30;;;;;;;;;;6275161;28;20074;-70
2022/01/20 18:39:55;;;;;;;26.60;11.88;;;;;;;;;;6276906;28;20552;-70
2022/01/20 18:42:56;;;;;;;22.05;7.68;;;;;;;;;;6258195;28;20523;-70
2022/01/20 18:45:56;;;;;;;35.25;13.35;;;;;;;;;;6265337;28;20388;-70
2022/01/20 18:48:58;;;;;;;17.73;8.80;;;;;;;;;;6266390;28;20055;-70
2022/01/20 18:51:58;;;;;;;28.77;10.38;;;;;;;;;;6262893;28;20087;-70
2022/01/20 18:54:59;;;;;;;17.17;5.60;;;;;;;;;;6264612;28;20041;-70
2022/01/20 18:57:59;;;;;;;32.45;10.88;;;;;;;;;;6264104;28;20220;-70
2022/01/20 19:00:59;;;;;;;20.60;7.43;;;;;;;;;;6267380;28;20104;-70
2022/01/20 19:04:00;;;;;;;14.15;4.72;;;;;;;;;;6264429;28;20021;-70
2022/01/20 19:07:01;;;;;;;24.65;9.23;;;;;;;;;;6266489;28;20016;-70
2022/01/20 19:10:02;;;;;;;16.15;6.68;;;;;;;;;;6266796;28;20366;-70
2022/01/20 19:13:02;;;;;;;29.70;8.23;;;;;;;;;;6264603;28;20021;-70
2022/01/20 19:16:03;;;;;;;16.77;5.00;;;;;;;;;;6266160;28;20067;-70
2022/01/20 19:19:03;;;;;;;11.45;4.80;;;;;;;;;;6269435;28;20079;-70
2022/01/20 19:22:05;;;;;;;18.52;5.85;;;;;;;;;;6269776;28;20020;-70